sensor_id;sensor_type;location;lat;lon;timestamp;pressure;altitude;pressure_sealevel;temperature;humidity
45793;BME280;31495;42.740;22.908;2023-03-20T00:00:46;93443.59;;;3.85;60.05
45793;BME280;31495;42.740;22.908;2023-03-20T00:01:46;93445.78;;;3.89;59.85
45793;BME280;31495;42.740;22.908;2023-03-20T00:02:46;93418.16;;;3.67;59.85
45793;BME280;31495;42.740;22.908;2023-03-20T00:03:47;93442.28;;;3.81;59.83
45793;BME280;31495;42.740;22.908;2023-03-20T00:04:46;93427.09;;;3.63;60.02
45793;BME280;31495;42.740;22.908;2023-03-20T00:05:46;93403.13;;;3.40;60.43
45793;BME280;31495;42.740;22.908;2023-03-20T00:06:45;93429.03;;;3.53;60.42
45793;BME280;31495;42.740;22.908;2023-03-20T00:07:45;93416.38;;;3.43;60.57
45793;BME280;31495;42.740;22.908;2023-03-20T00:08:45;93415.91;;;3.40;60.38
45793;BME280;31495;42.740;22.908;2023-03-20T00:09:45;93428.41;;;3.51;60.12
45793;BME280;31495;42.740;22.908;2023-03-20T00:10:46;93422.44;;;3.50;60.52
45793;BME280;31495;42.740;22.908;2023-03-20T00:11:50;93446.00;;;3.62;60.27
45793;BME280;31495;42.740;22.908;2023-03-20T00:12:51;93450.59;;;3.67;60.57
45793;BME280;31495;42.740;22.908;2023-03-20T00:13:52;93449.97;;;3.57;60.85
45793;BME280;31495;42.740;22.908;2023-03-20T00:14:52;93441.34;;;3.49;60.76
45793;BME280;31495;42.740;22.908;2023-03-20T00:15:52;93433.97;;;3.46;60.59
45793;BME280;31495;42.740;22.908;2023-03-20T00:16:53;93405.84;;;3.30;60.33
45793;BME280;31495;42.740;22.908;2023-03-20T00:17:52;93444.38;;;3.45;60.59
45793;BME280;31495;42.740;22.908;2023-03-20T00:18:52;93439.88;;;3.47;60.73
45793;BME280;31495;42.740;22.908;2023-03-20T00:19:51;93426.16;;;3.40;60.75
45793;BME280;31495;42.740;22.908;2023-03-20T00:20:51;93431.25;;;3.48;60.84
45793;BME280;31495;42.740;22.908;2023-03-20T00:21:53;93375.28;;;3.20;60.56
45793;BME280;31495;42.740;22.908;2023-03-20T00:22:53;93420.22;;;3.47;60.67
45793;BME280;31495;42.740;22.908;2023-03-20T00:23:53;93411.25;;;3.35;60.92
45793;BME280;31495;42.740;22.908;2023-03-20T00:24:53;93426.31;;;3.46;61.28
45793;BME280;31495;42.740;22.908;2023-03-20T00:25:52;93419.56;;;3.45;60.99
45793;BME280;31495;42.740;22.908;2023-03-20T00:26:53;93418.94;;;3.43;60.56
45793;BME280;31495;42.740;22.908;2023-03-20T00:27:52;93409.97;;;3.39;60.55
45793;BME280;31495;42.740;22.908;2023-03-20T00:28:52;93440.22;;;3.52;60.89
45793;BME280;31495;42.740;22.908;2023-03-20T00:29:52;93408.69;;;3.27;61.20
45793;BME280;31495;42.740;22.908;2023-03-20T00:30:51;93429.97;;;3.36;61.16
45793;BME280;31495;42.740;22.908;2023-03-20T00:31:52;93405.81;;;3.22;61.15
45793;BME280;31495;42.740;22.908;2023-03-20T00:32:52;93440.66;;;3.39;61.35
45793;BME280;31495;42.740;22.908;2023-03-20T00:33:52;93432.06;;;3.48;61.14
45793;BME280;31495;42.740;22.908;2023-03-20T00:34:52;93402.28;;;3.31;60.91
45793;BME280;31495;42.740;22.908;2023-03-20T00:35:52;93404.53;;;3.34;60.71
45793;BME280;31495;42.740;22.908;2023-03-20T00:36:52;93431.91;;;3.50;60.75
45793;BME280;31495;42.740;22.908;2023-03-20T00:37:53;93437.16;;;3.48;60.71
45793;BME280;31495;42.740;22.908;2023-03-20T00:38:54;93414.44;;;3.29;60.93
45793;BME280;31495;42.740;22.908;2023-03-20T00:39:57;93396.38;;;3.22;60.87
45793;BME280;31495;42.740;22.908;2023-03-20T00:40:56;93379.94;;;3.17;61.02
45793;BME280;31495;42.740;22.908;2023-03-20T00:41:59;93428.88;;;3.46;61.01
45793;BME280;31495;42.740;22.908;2023-03-20T00:43:02;93417.50;;;3.41;60.96
45793;BME280;31495;42.740;22.908;2023-03-20T00:44:12;93395.28;;;3.33;60.73
45793;BME280;31495;42.740;22.908;2023-03-20T00:45:18;93421.34;;;3.45;60.64
45793;BME280;31495;42.740;22.908;2023-03-20T00:46:19;93389.03;;;3.19;60.87
45793;BME280;31495;42.740;22.908;2023-03-20T00:47:21;93380.22;;;3.05;61.29
45793;BME280;31495;42.740;22.908;2023-03-20T00:48:21;93424.53;;;3.30;61.37
45793;BME280;31495;42.740;22.908;2023-03-20T00:49:24;93420.50;;;3.28;61.20
45793;BME280;31495;42.740;22.908;2023-03-20T00:50:27;93414.78;;;3.34;60.95
45793;BME280;31495;42.740;22.908;2023-03-20T00:51:28;93420.06;;;3.41;60.94
45793;BME280;31495;42.740;22.908;2023-03-20T00:52:27;93419.09;;;3.42;60.81
45793;BME280;31495;42.740;22.908;2023-03-20T00:53:26;93404.06;;;3.30;60.67
45793;BME280;31495;42.740;22.908;2023-03-20T00:54:26;93397.69;;;3.18;60.70
45793;BME280;31495;42.740;22.908;2023-03-20T00:55:27;93404.06;;;3.22;60.75
45793;BME280;31495;42.740;22.908;2023-03-20T00:56:34;93403.09;;;3.15;60.92
45793;BME280;31495;42.740;22.908;2023-03-20T00:57:41;93384.19;;;3.00;61.19
45793;BME280;31495;42.740;22.908;2023-03-20T00:58:41;93396.19;;;2.99;61.40
45793;BME280;31495;42.740;22.908;2023-03-20T00:59:51;93424.81;;;3.19;61.47
45793;BME280;31495;42.740;22.908;2023-03-20T01:00:52;93392.03;;;2.98;61.39
45793;BME280;31495;42.740;22.908;2023-03-20T01:01:51;93418.44;;;3.15;61.54
45793;BME280;31495;42.740;22.908;2023-03-20T01:02:52;93418.28;;;3.08;61.60
45793;BME280;31495;42.740;22.908;2023-03-20T01:03:52;93415.34;;;3.03;61.44
45793;BME280;31495;42.740;22.908;2023-03-20T01:04:51;93424.66;;;3.12;61.10
45793;BME280;31495;42.740;22.908;2023-03-20T01:05:51;93404.00;;;2.98;61.05
45793;BME280;31495;42.740;22.908;2023-03-20T01:06:51;93375.72;;;2.83;61.03
45793;BME280;31495;42.740;22.908;2023-03-20T01:07:50;93348.06;;;2.70;61.35
45793;BME280;31495;42.740;22.908;2023-03-20T01:08:50;93425.28;;;3.15;60.92
45793;BME280;31495;42.740;22.908;2023-03-20T01:09:49;93428.66;;;3.15;60.88
45793;BME280;31495;42.740;22.908;2023-03-20T01:10:53;93424.97;;;3.18;60.62
45793;BME280;31495;42.740;22.908;2023-03-20T01:11:53;93382.09;;;2.87;60.68
45793;BME280;31495;42.740;22.908;2023-03-20T01:12:53;93409.91;;;2.98;60.93
45793;BME280;31495;42.740;22.908;2023-03-20T01:13:54;93379.34;;;2.72;61.23
45793;BME280;31495;42.740;22.908;2023-03-20T01:14:55;93427.19;;;2.96;61.68
45793;BME280;31495;42.740;22.908;2023-03-20T01:15:57;93415.31;;;2.87;61.41
45793;BME280;31495;42.740;22.908;2023-03-20T01:16:57;93385.91;;;2.74;61.35
45793;BME280;31495;42.740;22.908;2023-03-20T01:17:56;93394.88;;;2.87;61.16
45793;BME280;31495;42.740;22.908;2023-03-20T01:18:56;93421.59;;;3.01;61.30
45793;BME280;31495;42.740;22.908;2023-03-20T01:19:55;93408.00;;;2.92;61.50
45793;BME280;31495;42.740;22.908;2023-03-20T01:20:54;93419.50;;;2.96;61.49
45793;BME280;31495;42.740;22.908;2023-03-20T01:21:54;93355.22;;;2.58;61.63
45793;BME280;31495;42.740;22.908;2023-03-20T01:22:53;93416.00;;;2.97;61.75
45793;BME280;31495;42.740;22.908;2023-03-20T01:23:53;93392.44;;;2.77;61.97
45793;BME280;31495;42.740;22.908;2023-03-20T01:24:52;93401.72;;;2.78;62.05
45793;BME280;31495;42.740;22.908;2023-03-20T01:25:52;93415.97;;;2.81;62.23
45793;BME280;31495;42.740;22.908;2023-03-20T01:26:51;93412.25;;;2.75;62.36
45793;BME280;31495;42.740;22.908;2023-03-20T01:27:53;93375.63;;;2.50;62.32
45793;BME280;31495;42.740;22.908;2023-03-20T01:28:53;93417.69;;;2.80;62.14
45793;BME280;31495;42.740;22.908;2023-03-20T01:29:52;93383.94;;;2.60;61.79
45793;BME280;31495;42.740;22.908;2023-03-20T01:30:52;93403.31;;;2.71;62.03
45793;BME280;31495;42.740;22.908;2023-03-20T01:31:51;93398.66;;;2.66;62.04
45793;BME280;31495;42.740;22.908;2023-03-20T01:32:52;93385.75;;;2.68;61.98
45793;BME280;31495;42.740;22.908;2023-03-20T01:33:52;93383.00;;;2.61;62.18
45793;BME280;31495;42.740;22.908;2023-03-20T01:34:51;93404.09;;;2.71;62.41
45793;BME280;31495;42.740;22.908;2023-03-20T01:35:51;93393.22;;;2.61;62.58
45793;BME280;31495;42.740;22.908;2023-03-20T01:36:56;93388.94;;;2.70;62.34
45793;BME280;31495;42.740;22.908;2023-03-20T01:37:57;93400.91;;;2.69;62.69
45793;BME280;31495;42.740;22.908;2023-03-20T01:38:57;93386.78;;;2.49;62.76
45793;BME280;31495;42.740;22.908;2023-03-20T01:39:57;93405.53;;;2.66;62.83
45793;BME280;31495;42.740;22.908;2023-03-20T01:42:06;93409.66;;;2.58;63.08
45793;BME280;31495;42.740;22.908;2023-03-20T01:43:14;93409.34;;;2.62;62.98
45793;BME280;31495;42.740;22.908;2023-03-20T01:44:21;93416.41;;;2.68;62.89
45793;BME280;31495;42.740;22.908;2023-03-20T01:45:25;93391.59;;;2.52;62.72
45793;BME280;31495;42.740;22.908;2023-03-20T01:46:29;93390.47;;;2.46;62.92
45793;BME280;31495;42.740;22.908;2023-03-20T01:47:30;93373.69;;;2.44;63.10
45793;BME280;31495;42.740;22.908;2023-03-20T01:51:24;93418.78;;;2.61;63.65
45793;BME280;31495;42.740;22.908;2023-03-20T01:52:24;93406.75;;;2.53;63.34
45793;BME280;31495;42.740;22.908;2023-03-20T01:53:26;93401.31;;;2.48;63.54
45793;BME280;31495;42.740;22.908;2023-03-20T01:54:29;93418.63;;;2.63;63.49
45793;BME280;31495;42.740;22.908;2023-03-20T01:55:32;93426.78;;;2.66;63.84
45793;BME280;31495;42.740;22.908;2023-03-20T01:56:35;93421.66;;;2.66;63.50
45793;BME280;31495;42.740;22.908;2023-03-20T01:57:37;93403.72;;;2.50;63.39
45793;BME280;31495;42.740;22.908;2023-03-20T01:58:40;93412.53;;;2.64;63.21
45793;BME280;31495;42.740;22.908;2023-03-20T01:59:55;93420.53;;;2.69;63.08
45793;BME280;31495;42.740;22.908;2023-03-20T02:00:57;93418.81;;;2.69;63.15
45793;BME280;31495;42.740;22.908;2023-03-20T02:01:58;93392.38;;;2.52;63.00
45793;BME280;31495;42.740;22.908;2023-03-20T02:02:58;93382.31;;;2.51;62.80
45793;BME280;31495;42.740;22.908;2023-03-20T02:03:58;93400.56;;;2.56;62.69
45793;BME280;31495;42.740;22.908;2023-03-20T02:05:07;93410.50;;;2.67;62.73
45793;BME280;31495;42.740;22.908;2023-03-20T02:06:07;93416.72;;;2.73;62.49
45793;BME280;31495;42.740;22.908;2023-03-20T02:07:07;93394.00;;;2.53;62.42
45793;BME280;31495;42.740;22.908;2023-03-20T02:09:23;93402.97;;;2.57;62.42
45793;BME280;31495;42.740;22.908;2023-03-20T02:10:23;93396.06;;;2.50;62.62
45793;BME280;31495;42.740;22.908;2023-03-20T02:11:23;93412.38;;;2.65;62.59
45793;BME280;31495;42.740;22.908;2023-03-20T02:12:24;93412.09;;;2.68;62.16
45793;BME280;31495;42.740;22.908;2023-03-20T02:13:26;93392.75;;;2.57;62.34
45793;BME280;31495;42.740;22.908;2023-03-20T02:14:27;93375.78;;;2.48;62.12
45793;BME280;31495;42.740;22.908;2023-03-20T02:15:35;93380.91;;;2.56;62.04
45793;BME280;31495;42.740;22.908;2023-03-20T02:16:34;93402.00;;;2.58;62.19
45793;BME280;31495;42.740;22.908;2023-03-20T02:17:34;93391.25;;;2.47;62.39
45793;BME280;31495;42.740;22.908;2023-03-20T02:18:34;93377.81;;;2.36;62.28
45793;BME280;31495;42.740;22.908;2023-03-20T02:37:32;93411.63;;;2.30;62.95
45793;BME280;31495;42.740;22.908;2023-03-20T02:41:12;93415.41;;;2.26;63.16
45793;BME280;31495;42.740;22.908;2023-03-20T02:43:41;93411.28;;;2.25;63.45
45793;BME280;31495;42.740;22.908;2023-03-20T02:47:05;93388.06;;;2.10;63.26
45793;BME280;31495;42.740;22.908;2023-03-20T02:49:50;93410.31;;;2.26;63.29
45793;BME280;31495;42.740;22.908;2023-03-20T02:52:05;93416.09;;;2.28;63.12
45793;BME280;31495;42.740;22.908;2023-03-20T02:53:42;93418.78;;;2.27;63.29
45793;BME280;31495;42.740;22.908;2023-03-20T02:55:19;93413.16;;;2.15;63.54
45793;BME280;31495;42.740;22.908;2023-03-20T02:56:36;93413.44;;;2.12;63.73
45793;BME280;31495;42.740;22.908;2023-03-20T02:59:40;93415.47;;;2.08;63.65
45793;BME280;31495;42.740;22.908;2023-03-20T03:01:15;93411.84;;;2.11;63.69
45793;BME280;31495;42.740;22.908;2023-03-20T03:02:21;93400.13;;;2.00;63.50
45793;BME280;31495;42.740;22.908;2023-03-20T03:03:32;93369.88;;;1.79;63.68
45793;BME280;31495;42.740;22.908;2023-03-20T03:04:37;93403.38;;;2.10;63.59
45793;BME280;31495;42.740;22.908;2023-03-20T03:05:47;93410.38;;;2.08;63.59
45793;BME280;31495;42.740;22.908;2023-03-20T03:06:50;93402.53;;;2.01;63.56
45793;BME280;31495;42.740;22.908;2023-03-20T03:07:56;93381.56;;;1.90;63.32
45793;BME280;31495;42.740;22.908;2023-03-20T03:09:03;93387.97;;;1.94;63.30
45793;BME280;31495;42.740;22.908;2023-03-20T03:10:09;93393.28;;;1.74;63.79
45793;BME280;31495;42.740;22.908;2023-03-20T03:11:09;93410.84;;;1.77;64.01
45793;BME280;31495;42.740;22.908;2023-03-20T03:12:18;93416.44;;;1.81;64.15
45793;BME280;31495;42.740;22.908;2023-03-20T03:13:26;93403.63;;;1.73;64.17
45793;BME280;31495;42.740;22.908;2023-03-20T03:14:41;93382.47;;;1.54;64.28
45793;BME280;31495;42.740;22.908;2023-03-20T03:15:45;93409.22;;;1.76;64.33
45793;BME280;31495;42.740;22.908;2023-03-20T03:16:48;93419.63;;;1.83;64.24
45793;BME280;31495;42.740;22.908;2023-03-20T03:17:50;93410.69;;;1.79;64.22
45793;BME280;31495;42.740;22.908;2023-03-20T03:19:04;93363.44;;;1.49;64.12
45793;BME280;31495;42.740;22.908;2023-03-20T03:20:14;93377.38;;;1.54;64.11
45793;BME280;31495;42.740;22.908;2023-03-20T03:21:17;93384.34;;;1.52;64.20
45793;BME280;31495;42.740;22.908;2023-03-20T03:22:18;93408.09;;;1.71;64.19
45793;BME280;31495;42.740;22.908;2023-03-20T03:24:33;93417.09;;;1.83;64.36
45793;BME280;31495;42.740;22.908;2023-03-20T03:25:38;93408.66;;;1.82;64.54
45793;BME280;31495;42.740;22.908;2023-03-20T03:26:40;93383.66;;;1.68;64.48
45793;BME280;31495;42.740;22.908;2023-03-20T03:27:43;93381.13;;;1.68;64.36
45793;BME280;31495;42.740;22.908;2023-03-20T03:28:48;93375.66;;;1.63;64.48
45793;BME280;31495;42.740;22.908;2023-03-20T03:29:54;93394.19;;;1.91;64.17
45793;BME280;31495;42.740;22.908;2023-03-20T03:30:55;93392.38;;;1.83;64.17
45793;BME280;31495;42.740;22.908;2023-03-20T03:31:55;93412.53;;;1.95;63.82
45793;BME280;31495;42.740;22.908;2023-03-20T03:34:15;93390.44;;;1.77;63.76
45793;BME280;31495;42.740;22.908;2023-03-20T03:35:18;93410.38;;;1.82;63.92
45793;BME280;31495;42.740;22.908;2023-03-20T03:37:46;93388.91;;;1.67;64.03
45793;BME280;31495;42.740;22.908;2023-03-20T03:41:25;93377.56;;;1.61;63.89
45793;BME280;31495;42.740;22.908;2023-03-20T03:42:31;93394.97;;;1.65;64.02
45793;BME280;31495;42.740;22.908;2023-03-20T03:43:42;93401.53;;;1.68;64.27
45793;BME280;31495;42.740;22.908;2023-03-20T03:46:01;93383.97;;;1.65;64.34
45793;BME280;31495;42.740;22.908;2023-03-20T03:47:10;93401.59;;;1.76;64.28
45793;BME280;31495;42.740;22.908;2023-03-20T03:48:21;93388.63;;;1.70;64.44
45793;BME280;31495;42.740;22.908;2023-03-20T03:49:27;93377.06;;;1.57;64.15
45793;BME280;31495;42.740;22.908;2023-03-20T03:50:32;93358.84;;;1.52;64.13
45793;BME280;31495;42.740;22.908;2023-03-20T03:51:35;93394.56;;;1.78;63.92
45793;BME280;31495;42.740;22.908;2023-03-20T03:52:39;93386.41;;;1.75;64.23
45793;BME280;31495;42.740;22.908;2023-03-20T03:53:48;93394.56;;;1.78;64.04
45793;BME280;31495;42.740;22.908;2023-03-20T03:55:56;93361.06;;;1.47;64.85
45793;BME280;31495;42.740;22.908;2023-03-20T03:56:59;93388.28;;;1.64;64.70
45793;BME280;31495;42.740;22.908;2023-03-20T03:59:30;93386.06;;;1.43;63.96
45793;BME280;31495;42.740;22.908;2023-03-20T04:00:33;93396.50;;;1.58;63.69
45793;BME280;31495;42.740;22.908;2023-03-20T04:01:33;93399.22;;;1.57;63.77
45793;BME280;31495;42.740;22.908;2023-03-20T04:02:35;93358.72;;;1.36;63.75
45793;BME280;31495;42.740;22.908;2023-03-20T04:03:38;93391.41;;;1.58;63.74
45793;BME280;31495;42.740;22.908;2023-03-20T04:04:42;93400.16;;;1.56;63.86
45793;BME280;31495;42.740;22.908;2023-03-20T04:05:44;93377.09;;;1.39;64.10
45793;BME280;31495;42.740;22.908;2023-03-20T04:06:44;93395.72;;;1.58;64.20
45793;BME280;31495;42.740;22.908;2023-03-20T04:07:45;93384.16;;;1.45;64.34
45793;BME280;31495;42.740;22.908;2023-03-20T04:08:45;93374.72;;;1.38;64.50
45793;BME280;31495;42.740;22.908;2023-03-20T04:09:44;93401.91;;;1.55;64.42
45793;BME280;31495;42.740;22.908;2023-03-20T04:10:43;93381.59;;;1.45;64.64
45793;BME280;31495;42.740;22.908;2023-03-20T04:11:47;93391.72;;;1.55;64.20
45793;BME280;31495;42.740;22.908;2023-03-20T04:12:48;93348.84;;;1.15;64.42
45793;BME280;31495;42.740;22.908;2023-03-20T04:13:49;93383.28;;;1.37;64.55
45793;BME280;31495;42.740;22.908;2023-03-20T04:14:49;93391.66;;;1.47;64.88
45793;BME280;31495;42.740;22.908;2023-03-20T04:15:49;93386.25;;;1.50;64.88
45793;BME280;31495;42.740;22.908;2023-03-20T04:16:48;93363.19;;;1.34;65.18
45793;BME280;31495;42.740;22.908;2023-03-20T04:17:48;93389.31;;;1.54;65.53
45793;BME280;31495;42.740;22.908;2023-03-20T04:18:48;93384.34;;;1.52;65.45
45793;BME280;31495;42.740;22.908;2023-03-20T04:19:48;93384.97;;;1.46;65.76
45793;BME280;31495;42.740;22.908;2023-03-20T04:20:47;93357.09;;;1.26;65.92
45793;BME280;31495;42.740;22.908;2023-03-20T04:21:46;93382.50;;;1.36;65.87
45793;BME280;31495;42.740;22.908;2023-03-20T04:22:46;93356.22;;;1.18;65.72
45793;BME280;31495;42.740;22.908;2023-03-20T04:23:45;93313.19;;;0.97;65.79
45793;BME280;31495;42.740;22.908;2023-03-20T04:24:45;93387.66;;;1.44;65.79
45793;BME280;31495;42.740;22.908;2023-03-20T04:25:44;93385.13;;;1.44;66.06
45793;BME280;31495;42.740;22.908;2023-03-20T04:26:43;93350.38;;;1.25;66.06
45793;BME280;31495;42.740;22.908;2023-03-20T04:27:43;93368.94;;;1.36;66.19
45793;BME280;31495;42.740;22.908;2023-03-20T04:28:43;93381.09;;;1.42;66.11
45793;BME280;31495;42.740;22.908;2023-03-20T04:29:43;93378.91;;;1.29;66.06
45793;BME280;31495;42.740;22.908;2023-03-20T04:30:42;93385.50;;;1.32;66.36
45793;BME280;31495;42.740;22.908;2023-03-20T04:31:46;93396.34;;;1.34;66.43
45793;BME280;31495;42.740;22.908;2023-03-20T04:32:45;93387.75;;;1.35;66.63
45793;BME280;31495;42.740;22.908;2023-03-20T04:33:45;93349.00;;;1.13;66.19
45793;BME280;31495;42.740;22.908;2023-03-20T04:34:45;93377.69;;;1.33;66.19
45793;BME280;31495;42.740;22.908;2023-03-20T04:35:44;93391.78;;;1.45;65.66
45793;BME280;31495;42.740;22.908;2023-03-20T04:36:43;93402.50;;;1.49;65.16
45793;BME280;31495;42.740;22.908;2023-03-20T04:37:43;93385.63;;;1.30;65.15
45793;BME280;31495;42.740;22.908;2023-03-20T04:38:43;93368.88;;;1.27;64.83
45793;BME280;31495;42.740;22.908;2023-03-20T04:39:42;93403.91;;;1.43;64.97
45793;BME280;31495;42.740;22.908;2023-03-20T04:40:43;93405.66;;;1.43;64.66
45793;BME280;31495;42.740;22.908;2023-03-20T04:41:43;93398.72;;;1.35;64.55
45793;BME280;31495;42.740;22.908;2023-03-20T04:42:43;93362.47;;;1.23;64.62
45793;BME280;31495;42.740;22.908;2023-03-20T04:43:42;93383.94;;;1.39;64.41
45793;BME280;31495;42.740;22.908;2023-03-20T04:44:42;93402.50;;;1.49;64.62
45793;BME280;31495;42.740;22.908;2023-03-20T04:45:41;93384.66;;;1.31;65.06
45793;BME280;31495;42.740;22.908;2023-03-20T04:46:41;93368.56;;;1.31;65.27
45793;BME280;31495;42.740;22.908;2023-03-20T04:47:40;93393.28;;;1.30;65.67
45793;BME280;31495;42.740;22.908;2023-03-20T04:48:40;93381.63;;;1.27;65.58
45793;BME280;31495;42.740;22.908;2023-03-20T04:49:39;93401.56;;;1.32;66.13
45793;BME280;31495;42.740;22.908;2023-03-20T04:50:39;93404.28;;;1.31;66.19
45793;BME280;31495;42.740;22.908;2023-03-20T04:51:38;93404.34;;;1.39;66.09
45793;BME280;31495;42.740;22.908;2023-03-20T04:52:38;93378.66;;;1.14;66.07
45793;BME280;31495;42.740;22.908;2023-03-20T04:53:38;93387.28;;;1.21;65.52
45793;BME280;31495;42.740;22.908;2023-03-20T04:54:37;93347.28;;;0.96;65.67
45793;BME280;31495;42.740;22.908;2023-03-20T04:55:36;93379.50;;;1.23;65.60
45793;BME280;31495;42.740;22.908;2023-03-20T04:56:36;93395.09;;;1.38;65.28
45793;BME280;31495;42.740;22.908;2023-03-20T04:57:36;93378.13;;;1.28;65.19
45793;BME280;31495;42.740;22.908;2023-03-20T04:58:35;93380.59;;;1.38;65.05
45793;BME280;31495;42.740;22.908;2023-03-20T04:59:35;93416.03;;;1.68;64.95
45793;BME280;31495;42.740;22.908;2023-03-20T05:00:34;93424.63;;;1.67;64.96
45793;BME280;31495;42.740;22.908;2023-03-20T05:01:33;93403.53;;;1.56;65.11
45793;BME280;31495;42.740;22.908;2023-03-20T05:02:33;93407.00;;;1.55;65.24
45793;BME280;31495;42.740;22.908;2023-03-20T05:03:32;93418.53;;;1.59;65.27
45793;BME280;31495;42.740;22.908;2023-03-20T05:04:32;93403.22;;;1.59;65.33
45793;BME280;31495;42.740;22.908;2023-03-20T05:05:31;93396.31;;;1.52;64.89
45793;BME280;31495;42.740;22.908;2023-03-20T05:06:32;93425.13;;;1.70;65.09
45793;BME280;31495;42.740;22.908;2023-03-20T05:07:32;93420.03;;;1.70;64.87
45793;BME280;31495;42.740;22.908;2023-03-20T05:08:31;93427.38;;;1.73;64.88
45793;BME280;31495;42.740;22.908;2023-03-20T05:09:30;93417.63;;;1.69;64.89
45793;BME280;31495;42.740;22.908;2023-03-20T05:10:30;93391.50;;;1.49;64.75
45793;BME280;31495;42.740;22.908;2023-03-20T05:11:30;93394.06;;;1.49;64.65
45793;BME280;31495;42.740;22.908;2023-03-20T05:12:30;93423.47;;;1.79;64.49
45793;BME280;31495;42.740;22.908;2023-03-20T05:13:29;93426.84;;;1.88;64.62
45793;BME280;31495;42.740;22.908;2023-03-20T05:14:29;93421.91;;;1.86;64.74
45793;BME280;31495;42.740;22.908;2023-03-20T05:15:29;93422.84;;;1.85;65.05
45793;BME280;31495;42.740;22.908;2023-03-20T05:16:28;93382.81;;;1.59;64.88
45793;BME280;31495;42.740;22.908;2023-03-20T05:17:27;93403.00;;;1.71;64.85
45793;BME280;31495;42.740;22.908;2023-03-20T05:18:27;93398.69;;;1.71;65.41
45793;BME280;31495;42.740;22.908;2023-03-20T05:19:26;93427.94;;;1.85;65.30
45793;BME280;31495;42.740;22.908;2023-03-20T05:20:26;93412.44;;;1.78;65.38
45793;BME280;31495;42.740;22.908;2023-03-20T05:21:25;93416.38;;;1.73;65.63
45793;BME280;31495;42.740;22.908;2023-03-20T05:22:25;93388.88;;;1.58;65.52
45793;BME280;31495;42.740;22.908;2023-03-20T05:23:24;93411.94;;;1.75;65.61
45793;BME280;31495;42.740;22.908;2023-03-20T05:24:24;93396.72;;;1.65;65.44
45793;BME280;31495;42.740;22.908;2023-03-20T05:25:24;93403.34;;;1.76;65.35
45793;BME280;31495;42.740;22.908;2023-03-20T05:26:24;93417.94;;;1.92;65.04
45793;BME280;31495;42.740;22.908;2023-03-20T05:27:23;93426.94;;;2.04;64.77
45793;BME280;31495;42.740;22.908;2023-03-20T05:28:22;93388.69;;;1.78;64.66
45793;BME280;31495;42.740;22.908;2023-03-20T05:29:22;93431.63;;;2.09;64.63
45793;BME280;31495;42.740;22.908;2023-03-20T05:30:21;93409.59;;;2.08;64.40
45793;BME280;31495;42.740;22.908;2023-03-20T05:31:21;93428.28;;;2.16;64.89
45793;BME280;31495;42.740;22.908;2023-03-20T05:32:20;93427.34;;;2.17;65.14
45793;BME280;31495;42.740;22.908;2023-03-20T05:33:20;93416.00;;;2.12;65.18
45793;BME280;31495;42.740;22.908;2023-03-20T05:34:20;93429.16;;;2.25;65.02
45793;BME280;31495;42.740;22.908;2023-03-20T05:35:19;93391.53;;;2.01;65.05
45793;BME280;31495;42.740;22.908;2023-03-20T05:36:19;93423.56;;;2.22;65.30
45793;BME280;31495;42.740;22.908;2023-03-20T05:37:19;93416.44;;;2.07;65.12
45793;BME280;31495;42.740;22.908;2023-03-20T05:38:18;93402.38;;;2.03;65.35
45793;BME280;31495;42.740;22.908;2023-03-20T05:39:20;93386.56;;;1.99;65.27
45793;BME280;31495;42.740;22.908;2023-03-20T05:40:20;93424.38;;;2.30;65.14
45793;BME280;31495;42.740;22.908;2023-03-20T05:41:23;93393.84;;;2.20;64.88
45793;BME280;31495;42.740;22.908;2023-03-20T05:42:23;93401.09;;;2.33;64.64
45793;BME280;31495;42.740;22.908;2023-03-20T05:43:22;93383.34;;;2.24;64.80
45793;BME280;31495;42.740;22.908;2023-03-20T05:44:22;93415.03;;;2.47;64.98
45793;BME280;31495;42.740;22.908;2023-03-20T05:45:22;93429.78;;;2.62;64.74
45793;BME280;31495;42.740;22.908;2023-03-20T05:46:21;93400.97;;;2.43;64.72
45793;BME280;31495;42.740;22.908;2023-03-20T05:47:21;93383.38;;;2.32;64.65
45793;BME280;31495;42.740;22.908;2023-03-20T05:48:22;93435.06;;;2.68;64.44
45793;BME280;31495;42.740;22.908;2023-03-20T05:49:21;93420.06;;;2.65;64.32
45793;BME280;31495;42.740;22.908;2023-03-20T05:50:21;93385.50;;;2.45;64.12
45793;BME280;31495;42.740;22.908;2023-03-20T05:51:20;93429.38;;;2.83;64.20
45793;BME280;31495;42.740;22.908;2023-03-20T05:52:20;93407.31;;;2.73;64.20
45793;BME280;31495;42.740;22.908;2023-03-20T05:53:19;93417.88;;;2.87;63.84
45793;BME280;31495;42.740;22.908;2023-03-20T05:54:19;93397.09;;;2.73;63.95
45793;BME280;31495;42.740;22.908;2023-03-20T05:55:18;93426.38;;;2.96;64.11
45793;BME280;31495;42.740;22.908;2023-03-20T05:56:18;93376.00;;;2.71;63.90
45793;BME280;31495;42.740;22.908;2023-03-20T05:57:17;93403.22;;;2.89;63.88
45793;BME280;31495;42.740;22.908;2023-03-20T05:58:17;93429.28;;;3.09;63.92
45793;BME280;31495;42.740;22.908;2023-03-20T05:59:17;93415.19;;;3.05;63.77
45793;BME280;31495;42.740;22.908;2023-03-20T06:00:16;93404.81;;;3.06;63.76
45793;BME280;31495;42.740;22.908;2023-03-20T06:01:16;93378.28;;;2.91;63.82
45793;BME280;31495;42.740;22.908;2023-03-20T06:02:19;93422.75;;;3.23;63.81
45793;BME280;31495;42.740;22.908;2023-03-20T06:03:18;93297.56;;;2.47;63.80
45793;BME280;31495;42.740;22.908;2023-03-20T06:04:18;93425.47;;;3.29;63.81
45793;BME280;31495;42.740;22.908;2023-03-20T06:05:17;93392.72;;;3.17;63.81
45793;BME280;31495;42.740;22.908;2023-03-20T06:06:17;93425.31;;;3.47;63.54
45793;BME280;31495;42.740;22.908;2023-03-20T06:07:16;93406.78;;;3.37;63.70
45793;BME280;31495;42.740;22.908;2023-03-20T06:08:15;93417.50;;;3.49;63.42
45793;BME280;31495;42.740;22.908;2023-03-20T06:09:15;93393.03;;;3.38;63.02
45793;BME280;31495;42.740;22.908;2023-03-20T06:10:14;93406.63;;;3.47;63.05
45793;BME280;31495;42.740;22.908;2023-03-20T06:11:14;93411.91;;;3.54;63.24